Time;durP1;ratioP1;P1;durP2;ratioP2;P2;SDS_P1;SDS_P2;PMS_P1;PMS_P2;Temp;Humidity;BMP_temperature;BMP_pressure;BME280_temperature;BME280_humidity;BME280_pressure;Samples;Min_cycle;Max_cycle;Signal;HPM_P1;HPM_P2
2022/07/01 09:54:39;;;;;;;4.97;4.45;;;;;;;22.21;53.32;101653.41;5080993;28;20387;-53
2022/07/01 09:57:05;;;;;;;8.05;4.68;;;;;;;22.07;53.59;101654.53;5092367;28;20149;-46
2022/07/01 10:08:17;;;;;;;8.70;3.53;;;;;;;-148.20;100.00;73351.34;5048538;27;20413;-51
2022/07/01 10:13:31;;;;;;;12.02;3.47;;;;;;;21.92;53.41;101659.72;5096862;27;20393;-55
2022/07/01 10:15:57;;;;;;;9.00;3.25;;;;;;;21.87;52.91;101650.88;5090076;28;20510;-55
2022/07/01 10:18:26;;;;;;;5.22;2.65;;;;;;;21.82;53.41;101652.19;5092905;28;20034;-54
2022/07/01 10:20:52;;;;;;;5.80;3.33;;;;;;;21.76;53.25;101656.78;5091796;28;20035;-55
2022/07/01 10:23:20;;;;;;;4.43;2.17;;;;;;;21.68;53.47;101658.97;5093796;28;20406;-57
2022/07/01 10:25:46;;;;;;;5.00;2.70;;;;;;;21.74;53.83;101661.31;5091573;28;20580;-55
2022/07/01 10:28:22;;;;;;;6.15;2.72;;;;;;;21.83;53.88;101659.47;5092890;28;20028;-56
2022/07/01 10:30:48;;;;;;;6.00;3.10;;;;;;;21.82;53.96;101668.47;5091110;28;20040;-55
2022/07/01 10:33:34;;;;;;;5.72;2.80;;;;;;;21.85;53.34;101673.31;5094709;28;20040;-59
2022/07/01 10:36:32;;;;;;;9.30;2.75;;;;;;;21.80;53.24;101676.63;5091031;28;20063;-55
2022/07/01 10:39:06;;;;;;;4.43;2.55;;;;;;;21.70;52.66;101682.13;5060912;28;20036;-54
2022/07/01 10:41:36;;;;;;;5.82;2.88;;;;;;;21.52;53.14;101679.63;5092580;28;20032;-58
2022/07/01 10:44:03;;;;;;;4.35;2.38;;;;;;;21.51;53.06;101677.19;5092661;28;20453;-62
2022/07/01 10:46:45;;;;;;;7.38;2.53;;;;;;;21.50;53.00;101681.28;5097966;28;20047;-59
2022/07/01 10:49:15;;;;;;;6.35;2.47;;;;;;;21.45;54.14;101676.09;5107475;28;20085;-55
2022/07/01 10:51:53;;;;;;;4.20;2.42;;;;;;;21.43;54.38;101681.41;5100988;28;20025;-64
2022/07/01 10:54:55;;;;;;;8.75;2.40;;;;;;;21.47;54.05;101673.59;5023733;27;60167;-66
2022/07/01 10:59:05;;;;;;;5.60;2.38;;;;;;;21.53;53.49;101669.03;5044919;27;145798;-63
2022/07/01 11:01:32;;;;;;;5.38;3.05;;;;;;;21.59;53.38;101667.28;5079279;28;20053;-61
2022/07/01 11:09:06;;;;;;;12.00;3.58;;;;;;;-148.20;100.00;73351.34;5104051;27;20357;-74
2022/07/01 11:11:33;;;;;;;5.50;2.70;;;;;;;-148.20;100.00;73351.34;5092383;28;20055;-74
2022/07/01 11:14:01;;;;;;;3.45;2.28;;;;;;;-148.20;100.00;73351.34;5092010;28;20452;-73
2022/07/01 11:16:30;;;;;;;6.82;2.35;;;;;;;-148.20;100.00;73351.34;5091265;28;20051;-74
2022/07/01 11:18:57;;;;;;;8.82;2.70;;;;;;;-148.20;100.00;73351.34;5093396;28;20082;-74
2022/07/01 11:21:25;;;;;;;8.75;3.28;;;;;;;-148.20;100.00;73351.34;5095139;28;20491;-73
2022/07/01 11:23:55;;;;;;;6.78;3.33;;;;;;;-148.20;100.00;73351.34;5096543;28;20059;-74
2022/07/01 11:26:26;;;;;;;15.85;3.17;;;;;;;-148.20;100.00;73351.34;5094478;28;20059;-74
2022/07/01 11:28:53;;;;;;;8.85;2.20;;;;;;;-148.20;100.00;73351.34;5084707;28;20063;-76
2022/07/01 11:31:33;;;;;;;8.98;2.60;;;;;;;-148.20;100.00;73351.34;5082650;28;20260;-75
2022/07/01 11:34:00;;;;;;;6.10;2.10;;;;;;;-148.20;100.00;73351.34;5082714;28;20052;-76
2022/07/01 11:39:23;;;;;;;3.75;2.30;;;;;;;-148.20;100.00;73351.34;5084619;28;20099;-75
2022/07/01 11:41:54;;;;;;;4.80;2.22;;;;;;;-148.20;100.00;73351.34;5084028;28;20052;-75
2022/07/01 11:44:29;;;;;;;4.20;2.13;;;;;;;-148.20;100.00;73351.34;5088166;28;20066;-73
2022/07/01 11:46:56;;;;;;;4.63;2.42;;;;;;;-148.20;100.00;73351.34;5087843;28;20482;-74
2022/07/01 11:49:23;;;;;;;6.03;2.72;;;;;;;-148.20;100.00;73351.34;5084555;28;21376;-74
2022/07/01 11:51:55;;;;;;;3.33;2.40;;;;;;;-148.20;100.00;73351.34;5077494;28;20142;-74
2022/07/01 11:55:56;;;;;;;5.97;2.53;;;;;;;;;;5013602;28;20223;-74
2022/07/01 11:58:23;;;;;;;6.60;2.78;;;;;;;;;;5079641;28;20727;-74
2022/07/01 12:00:50;;;;;;;5.68;2.17;;;;;;;;;;5077093;28;20184;-74
2022/07/01 12:03:29;;;;;;;6.82;2.20;;;;;;;;;;5082907;28;20048;-74
2022/07/01 12:05:56;;;;;;;5.97;2.30;;;;;;;;;;5077424;28;20080;-74
2022/07/01 12:08:23;;;;;;;4.95;2.20;;;;;;;;;;5084575;28;20499;-73
2022/07/01 12:10:49;;;;;;;7.10;2.20;;;;;;;;;;5067673;28;20056;-74
2022/07/01 12:13:23;;;;;;;6.57;2.35;;;;;;;;;;5077333;28;20435;-74
2022/07/01 12:15:50;;;;;;;6.88;2.30;;;;;;;;;;5076200;28;20055;-74
2022/07/01 12:18:16;;;;;;;4.57;2.15;;;;;;;;;;5080267;28;20610;-72
2022/07/01 12:20:48;;;;;;;6.75;2.55;;;;;;;;;;5074553;28;20064;-73
2022/07/01 12:23:14;;;;;;;11.17;3.07;;;;;;;;;;5080911;28;20055;-75
2022/07/01 12:25:46;;;;;;;6.18;2.45;;;;;;;;;;5072807;28;20415;-76
2022/07/01 12:28:25;;;;;;;8.20;2.30;;;;;;;;;;5073196;28;20052;-77
2022/07/01 12:30:59;;;;;;;8.90;2.50;;;;;;;;;;4975229;28;72327;-72
2022/07/01 12:33:27;;;;;;;5.60;2.45;;;;;;;;;;5008603;28;20064;-75
2022/07/01 12:37:27;;;;;;;4.35;2.05;;;;;;;;;;5113106;27;20751;-73
2022/07/01 12:39:54;;;;;;;6.18;2.28;;;;;;;;;;5093602;28;20043;-74
2022/07/01 12:45:55;;;;;;;6.03;2.13;;;;;;;;;;6905818;19;5011456;-75
2022/07/01 12:55:15;;;;;;;2.60;1.30;;;;;;;-148.20;100.00;73351.34;7415143;19;20385;-61
2022/07/01 13:26:24;;;;;;;4.38;1.77;;;;;;;22.75;47.15;101695.03;4962557;27;142035;-50
2022/07/01 13:31:14;;;;;;;7.75;1.77;;;;;;;23.09;47.34;101696.69;5056507;28;20423;-58
2022/07/01 13:33:40;;;;;;;7.70;1.98;;;;;;;22.99;46.64;101692.03;5060209;28;20055;-53
2022/07/01 13:36:05;;;;;;;3.55;1.40;;;;;;;22.87;48.09;101702.88;5059262;28;21292;-62
2022/07/01 13:38:31;;;;;;;2.63;1.30;;;;;;;22.87;47.87;101696.38;5024060;28;20512;-55
2022/07/01 13:40:57;;;;;;;2.20;1.27;;;;;;;22.83;47.09;101696.47;5021360;28;20053;-58
2022/07/01 13:43:22;;;;;;;2.72;1.20;;;;;;;23.09;46.08;101691.00;5020652;28;20034;-60
2022/07/01 13:47:01;;;;;;;3.53;1.73;;;;;;;22.64;46.74;101700.16;5029464;27;20418;-72
2022/07/01 13:49:28;;;;;;;2.63;1.20;;;;;;;22.56;47.49;101698.72;4988197;28;20560;-70
2022/07/01 13:51:53;;;;;;;4.22;1.50;;;;;;;22.47;47.65;101696.47;4985815;28;20041;-70
2022/07/01 13:54:18;;;;;;;10.20;1.83;;;;;;;22.45;47.72;101702.63;4987884;28;20057;-69
2022/07/01 13:56:45;;;;;;;5.05;1.65;;;;;;;22.39;46.97;101706.41;4988118;28;20025;-69
2022/07/01 13:59:57;;;;;;;3.38;1.52;;;;;;;-148.20;100.00;73351.34;5070484;27;20423;-74
2022/07/01 14:02:22;;;;;;;6.15;1.42;;;;;;;-148.20;100.00;73351.34;4999299;28;20913;-73
2022/07/01 14:06:22;;;;;;;4.72;1.30;;;;;;;;;;4990366;28;20506;-74
2022/07/01 14:08:47;;;;;;;4.65;1.35;;;;;;;;;;4977412;28;20042;-71
2022/07/01 14:11:12;;;;;;;1.90;0.90;;;;;;;;;;4980848;28;20033;-70
2022/07/01 14:13:39;;;;;;;5.78;1.40;;;;;;;;;;4980407;28;21050;-73
2022/07/01 14:16:06;;;;;;;3.67;1.23;;;;;;;;;;4978566;28;20125;-72
2022/07/01 14:20:35;;;;;;;6.65;1.58;;;;;;;;;;5115770;27;20214;-73
2022/07/01 14:23:01;;;;;;;7.22;2.05;;;;;;;;;;5100002;27;20087;-72
2022/07/01 14:25:26;;;;;;;10.13;2.60;;;;;;;;;;5089502;28;20681;-72
2022/07/01 14:27:51;;;;;;;5.30;1.80;;;;;;;;;;5094568;27;20035;-71
2022/07/01 14:30:16;;;;;;;5.82;1.67;;;;;;;;;;5093012;27;20287;-72
2022/07/01 14:32:42;;;;;;;3.70;1.65;;;;;;;;;;5095760;27;20015;-71
2022/07/01 14:35:08;;;;;;;5.35;2.00;;;;;;;;;;5091856;28;20030;-72
2022/07/01 14:37:33;;;;;;;9.15;2.25;;;;;;;;;;5091645;27;20492;-71
2022/07/01 14:39:58;;;;;;;7.45;2.05;;;;;;;;;;5092709;28;20047;-71
2022/07/01 14:42:24;;;;;;;7.80;2.60;;;;;;;;;;5097862;27;20095;-70
2022/07/01 14:44:50;;;;;;;5.35;2.10;;;;;;;;;;5080293;27;20035;-72
2022/07/01 14:47:15;;;;;;;4.22;2.00;;;;;;;;;;5089255;27;20027;-71
2022/07/01 14:49:41;;;;;;;2.95;1.90;;;;;;;;;;5097591;27;20474;-70
2022/07/01 14:52:07;;;;;;;6.80;2.08;;;;;;;;;;5080708;27;20028;-71
2022/07/01 14:54:32;;;;;;;3.30;1.90;;;;;;;;;;5093798;27;20382;-72
2022/07/01 14:56:57;;;;;;;2.97;1.20;;;;;;;;;;5094179;27;20084;-71
2022/07/01 14:59:22;;;;;;;4.03;1.50;;;;;;;;;;5100417;27;20287;-73
2022/07/01 15:01:47;;;;;;;11.38;5.40;;;;;;;;;;5083151;27;20287;-73
2022/07/01 15:04:13;;;;;;;4.45;2.22;;;;;;;;;;5055860;28;20020;-72
2022/07/01 15:06:38;;;;;;;8.15;2.13;;;;;;;;;;5072498;28;20020;-72
2022/07/01 15:09:03;;;;;;;4.32;1.48;;;;;;;;;;5078639;28;20082;-71
2022/07/01 15:11:28;;;;;;;6.07;1.30;;;;;;;;;;5081742;28;20019;-72
2022/07/01 15:13:54;;;;;;;7.40;1.85;;;;;;;;;;5078659;28;20051;-70
2022/07/01 15:16:19;;;;;;;3.67;1.42;;;;;;;;;;5078492;28;20949;-73
2022/07/01 15:18:44;;;;;;;3.67;1.80;;;;;;;;;;5077893;28;20055;-71
2022/07/01 15:21:09;;;;;;;4.23;1.50;;;;;;;;;;5076661;28;20043;-71
2022/07/01 15:23:35;;;;;;;3.23;1.50;;;;;;;;;;5083246;28;20280;-71
2022/07/01 15:26:00;;;;;;;3.65;1.60;;;;;;;;;;5086610;28;20635;-71
2022/07/01 15:28:25;;;;;;;4.50;1.85;;;;;;;;;;5085640;28;20032;-71
2022/07/01 15:30:50;;;;;;;8.05;1.70;;;;;;;;;;5077784;28;21043;-70
2022/07/01 15:33:16;;;;;;;8.43;2.60;;;;;;;;;;5071306;28;20027;-71
2022/07/01 15:35:41;;;;;;;5.38;2.10;;;;;;;;;;5073509;28;20548;-71
2022/07/01 15:38:06;;;;;;;6.63;1.88;;;;;;;;;;5069523;28;20038;-74
2022/07/01 15:40:33;;;;;;;7.22;1.83;;;;;;;;;;5068871;28;20937;-72
2022/07/01 15:42:58;;;;;;;6.53;1.98;;;;;;;;;;5075475;28;20016;-74
2022/07/01 15:45:24;;;;;;;3.63;1.60;;;;;;;;;;5073317;28;20436;-74
2022/07/01 15:48:05;;;;;;;3.15;1.60;;;;;;;;;;5051575;28;20028;-72
2022/07/01 15:50:30;;;;;;;4.72;1.63;;;;;;;;;;5067284;28;20044;-72
2022/07/01 15:52:56;;;;;;;4.90;1.60;;;;;;;;;;5072121;28;20078;-74
2022/07/01 15:55:21;;;;;;;6.38;1.77;;;;;;;;;;5075086;28;20154;-70
2022/07/01 15:57:46;;;;;;;5.93;1.83;;;;;;;;;;5076683;28;20136;-72
2022/07/01 16:00:13;;;;;;;5.13;1.90;;;;;;;;;;5073141;28;20721;-74
2022/07/01 16:02:39;;;;;;;4.22;1.70;;;;;;;;;;5069730;28;20023;-74
2022/07/01 16:05:04;;;;;;;3.47;1.92;;;;;;;;;;5074682;28;20356;-72
2022/07/01 16:07:30;;;;;;;4.82;1.98;;;;;;;;;;5069352;28;20023;-72
2022/07/01 16:10:01;;;;;;;3.95;1.70;;;;;;;;;;5060497;28;20038;-72
2022/07/01 16:12:28;;;;;;;4.72;1.70;;;;;;;;;;5056968;28;20024;-72
2022/07/01 16:14:54;;;;;;;4.03;1.45;;;;;;;;;;5062191;28;20060;-72
2022/07/01 16:17:22;;;;;;;8.85;2.47;;;;;;;;;;5075342;28;20023;-74
2022/07/01 16:19:48;;;;;;;3.70;1.45;;;;;;;;;;5074091;28;20048;-74
2022/07/01 16:22:15;;;;;;;3.92;1.50;;;;;;;;;;5071050;28;20032;-72
2022/07/01 16:24:41;;;;;;;3.20;1.40;;;;;;;;;;5071488;28;20047;-72
2022/07/01 16:27:07;;;;;;;5.28;2.08;;;;;;;;;;5069911;28;20103;-71
2022/07/01 16:29:34;;;;;;;4.32;1.73;;;;;;;;;;5074391;28;20395;-70
2022/07/01 16:32:02;;;;;;;3.30;1.38;;;;;;;;;;5068558;28;20101;-73
2022/07/01 16:34:27;;;;;;;2.55;1.50;;;;;;;;;;5071573;28;20136;-72
2022/07/01 16:36:55;;;;;;;4.50;1.45;;;;;;;;;;5068585;28;20167;-71
2022/07/01 16:39:22;;;;;;;4.45;1.88;;;;;;;;;;5072609;28;20134;-72
2022/07/01 16:41:55;;;;;;;2.38;1.60;;;;;;;;;;5069116;28;20028;-74
2022/07/01 16:44:23;;;;;;;6.10;2.95;;;;;;;;;;5072940;28;20579;-72
2022/07/01 16:46:50;;;;;;;3.85;1.55;;;;;;;;;;5069205;28;20020;-73
2022/07/01 16:49:19;;;;;;;2.47;1.92;;;;;;;;;;5068336;28;20040;-73
2022/07/01 16:51:46;;;;;;;4.53;1.63;;;;;;;;;;5065048;28;21100;-75
2022/07/01 16:54:12;;;;;;;3.33;1.95;;;;;;;;;;5064989;28;20089;-74
2022/07/01 16:56:40;;;;;;;2.33;1.38;;;;;;;;;;5071190;28;20050;-71
2022/07/01 16:59:05;;;;;;;3.65;1.40;;;;;;;;;;5077645;28;20169;-73
2022/07/01 17:01:31;;;;;;;2.83;1.23;;;;;;;;;;5056295;28;20028;-72
2022/07/01 17:03:59;;;;;;;2.63;1.15;;;;;;;;;;5078612;28;20031;-72
2022/07/01 17:06:25;;;;;;;4.63;2.08;;;;;;;;;;5075913;28;20043;-74
2022/07/01 17:08:53;;;;;;;2.22;1.45;;;;;;;;;;5074075;28;20128;-71
2022/07/01 17:11:19;;;;;;;4.05;1.65;;;;;;;;;;5075354;28;20098;-71
2022/07/01 17:13:47;;;;;;;1.60;1.17;;;;;;;;;;5078405;28;20028;-72
2022/07/01 17:16:15;;;;;;;4.80;1.20;;;;;;;;;;5071125;28;20446;-71
2022/07/01 17:18:42;;;;;;;5.13;1.40;;;;;;;;;;5058454;28;20695;-73
2022/07/01 17:21:07;;;;;;;1.42;1.05;;;;;;;;;;5047047;28;20039;-72
2022/07/01 17:23:42;;;;;;;7.82;2.38;;;;;;;;;;5054438;28;20017;-74
2022/07/01 17:26:09;;;;;;;3.42;1.33;;;;;;;;;;5050613;28;20036;-73
2022/07/01 17:28:42;;;;;;;4.00;1.15;;;;;;;;;;5052210;28;20535;-70
2022/07/01 17:31:19;;;;;;;4.28;1.45;;;;;;;;;;5044690;28;20046;-71
2022/07/01 17:33:45;;;;;;;2.53;1.27;;;;;;;;;;5054973;28;20564;-74
2022/07/01 17:36:21;;;;;;;3.38;1.27;;;;;;;;;;5052742;28;20114;-72
2022/07/01 17:38:47;;;;;;;2.35;1.40;;;;;;;;;;5068510;28;20039;-70
2022/07/01 17:41:17;;;;;;;4.70;1.63;;;;;;;;;;5050249;28;20017;-73
2022/07/01 17:43:43;;;;;;;5.03;1.52;;;;;;;;;;5063513;28;20020;-71
2022/07/01 17:46:09;;;;;;;3.00;1.42;;;;;;;;;;5047094;28;20028;-71
2022/07/01 17:48:35;;;;;;;2.85;1.40;;;;;;;;;;5050041;28;20098;-70
2022/07/01 17:51:01;;;;;;;2.80;1.70;;;;;;;;;;5050217;28;20131;-71
2022/07/01 17:53:27;;;;;;;4.82;1.55;;;;;;;;;;5053066;28;20703;-71
2022/07/01 17:55:54;;;;;;;4.63;1.60;;;;;;;;;;5053565;28;20024;-73
2022/07/01 17:58:20;;;;;;;2.30;1.30;;;;;;;;;;5043593;28;20436;-76
2022/07/01 18:00:45;;;;;;;3.25;1.55;;;;;;;;;;5046092;28;20016;-72
2022/07/01 18:03:11;;;;;;;3.63;1.40;;;;;;;;;;5053640;28;20055;-73
2022/07/01 18:05:38;;;;;;;2.45;1.48;;;;;;;;;;5052746;28;20179;-74
2022/07/01 18:08:05;;;;;;;2.13;1.63;;;;;;;;;;5046021;28;20078;-71
2022/07/01 18:10:36;;;;;;;5.35;1.67;;;;;;;;;;5048228;28;20039;-74
2022/07/01 18:13:01;;;;;;;3.63;1.60;;;;;;;;;;5054115;28;20047;-72
2022/07/01 18:15:28;;;;;;;5.00;1.80;;;;;;;;;;5046928;28;20257;-71
2022/07/01 18:17:57;;;;;;;4.25;1.70;;;;;;;;;;5054102;28;20028;-71
2022/07/01 18:20:42;;;;;;;2.65;1.30;;;;;;;;;;5070450;28;20056;-72
2022/07/01 18:23:14;;;;;;;3.03;1.58;;;;;;;;;;5076693;28;20030;-72
2022/07/01 18:25:40;;;;;;;2.92;1.95;;;;;;;;;;5059508;28;20028;-76
2022/07/01 18:28:06;;;;;;;2.20;1.60;;;;;;;;;;5061824;28;20068;-72
2022/07/01 18:30:39;;;;;;;5.07;1.90;;;;;;;;;;5057273;28;20044;-71
2022/07/01 18:33:07;;;;;;;4.60;1.70;;;;;;;;;;5076904;28;20028;-71
2022/07/01 18:35:33;;;;;;;6.88;2.10;;;;;;;;;;5077224;28;20517;-73
2022/07/01 18:37:59;;;;;;;5.05;1.80;;;;;;;;;;5075212;28;20067;-70
2022/07/01 18:40:26;;;;;;;3.35;1.90;;;;;;;;;;5084157;28;20068;-71
2022/07/01 18:42:52;;;;;;;3.38;1.90;;;;;;;;;;5083035;28;20102;-73
2022/07/01 18:45:17;;;;;;;5.93;1.77;;;;;;;;;;5078390;28;20024;-70
2022/07/01 18:47:43;;;;;;;3.05;1.80;;;;;;;;;;5078588;28;20074;-72
2022/07/01 18:50:09;;;;;;;3.75;1.75;;;;;;;;;;5080958;28;20506;-72
2022/07/01 18:52:34;;;;;;;3.55;1.85;;;;;;;;;;5079922;28;20041;-72
2022/07/01 18:55:00;;;;;;;5.15;2.80;;;;;;;;;;5076996;28;20028;-72
2022/07/01 18:57:25;;;;;;;2.58;1.65;;;;;;;;;;5079377;28;20032;-72
2022/07/01 18:59:50;;;;;;;8.48;2.72;;;;;;;;;;5073491;28;20028;-73
2022/07/01 19:02:16;;;;;;;4.28;1.92;;;;;;;;;;5063917;28;20498;-72
2022/07/01 19:04:45;;;;;;;2.70;1.48;;;;;;;;;;5072742;28;20059;-74
2022/07/01 19:07:13;;;;;;;3.75;1.70;;;;;;;;;;5075635;28;20047;-73
2022/07/01 19:09:39;;;;;;;6.22;1.73;;;;;;;;;;5076803;28;20030;-70
2022/07/01 19:12:05;;;;;;;7.15;2.13;;;;;;;;;;5077319;28;21817;-72
2022/07/01 19:14:30;;;;;;;3.15;1.90;;;;;;;;;;5074700;28;20036;-72
2022/07/01 19:16:56;;;;;;;4.15;1.75;;;;;;;;;;5076410;28;20032;-72
2022/07/01 19:19:27;;;;;;;3.05;1.90;;;;;;;;;;5079023;28;20059;-72
2022/07/01 19:21:52;;;;;;;4.25;1.85;;;;;;;;;;5074768;28;20020;-73
2022/07/01 19:24:17;;;;;;;4.05;1.70;;;;;;;;;;5079307;28;20035;-73
2022/07/01 19:26:43;;;;;;;4.05;2.03;;;;;;;;;;5079897;28;20498;-74
2022/07/01 19:29:08;;;;;;;4.22;1.80;;;;;;;;;;5078361;28;20582;-75
2022/07/01 19:31:33;;;;;;;5.03;1.77;;;;;;;;;;5079245;28;20055;-73
2022/07/01 19:33:58;;;;;;;2.90;2.00;;;;;;;;;;5060042;28;20290;-74
2022/07/01 19:36:24;;;;;;;6.88;1.75;;;;;;;;;;5076493;28;20097;-72
2022/07/01 19:38:50;;;;;;;6.22;2.60;;;;;;;;;;5081162;28;20361;-74
2022/07/01 19:41:15;;;;;;;4.50;2.22;;;;;;;;;;5078863;28;20106;-74
2022/07/01 19:43:40;;;;;;;4.30;1.83;;;;;;;;;;5072711;28;20048;-75
2022/07/01 19:46:05;;;;;;;5.45;2.35;;;;;;;;;;5076903;28;20038;-75
2022/07/01 19:48:31;;;;;;;2.40;1.80;;;;;;;;;;5075755;28;20383;-72
2022/07/01 19:50:57;;;;;;;2.33;1.65;;;;;;;;;;5072488;28;20032;-74
2022/07/01 19:53:22;;;;;;;3.75;2.00;;;;;;;;;;5074780;28;20525;-75
2022/07/01 19:55:47;;;;;;;4.57;1.58;;;;;;;;;;5079189;28;20024;-74
2022/07/01 19:58:13;;;;;;;4.78;1.90;;;;;;;;;;5076755;28;20072;-74
2022/07/01 20:00:38;;;;;;;1.73;1.60;;;;;;;;;;5076737;28;20031;-74
2022/07/01 20:03:03;;;;;;;3.97;2.20;;;;;;;;;;5071631;28;20027;-75
2022/07/01 20:05:28;;;;;;;3.85;1.80;;;;;;;;;;5076881;28;20031;-71
2022/07/01 20:07:54;;;;;;;4.63;2.23;;;;;;;;;;5075421;28;20020;-75
2022/07/01 20:10:19;;;;;;;3.43;2.23;;;;;;;;;;5075402;28;21361;-75
2022/07/01 20:12:45;;;;;;;6.65;2.75;;;;;;;;;;5073670;28;20358;-74
2022/07/01 20:15:11;;;;;;;3.88;2.03;;;;;;;;;;5074456;28;20388;-74
2022/07/01 20:17:36;;;;;;;3.13;2.20;;;;;;;;;;5076017;28;20020;-75
2022/07/01 20:20:04;;;;;;;3.45;2.33;;;;;;;;;;5077521;28;20596;-71
2022/07/01 20:22:29;;;;;;;3.97;3.15;;;;;;;;;;5074180;28;20027;-75
2022/07/01 20:24:54;;;;;;;3.80;2.38;;;;;;;;;;5078866;28;20024;-71
2022/07/01 20:27:19;;;;;;;5.53;2.10;;;;;;;;;;5077392;28;20117;-71
2022/07/01 20:29:45;;;;;;;4.30;1.90;;;;;;;;;;5074868;28;20861;-75
2022/07/01 20:32:10;;;;;;;4.85;1.85;;;;;;;;;;5069001;28;20472;-74
2022/07/01 20:34:35;;;;;;;6.20;2.22;;;;;;;;;;5073688;28;20027;-75
2022/07/01 20:37:01;;;;;;;4.18;1.85;;;;;;;;;;5076113;28;20036;-74
2022/07/01 20:39:26;;;;;;;5.90;2.22;;;;;;;;;;5075999;28;20028;-73
2022/07/01 20:41:51;;;;;;;4.47;2.03;;;;;;;;;;5077138;28;20022;-71
2022/07/01 20:44:16;;;;;;;2.40;1.95;;;;;;;;;;5076875;28;20042;-75
2022/07/01 20:46:41;;;;;;;5.63;2.55;;;;;;;;;;5079119;28;20043;-73
2022/07/01 20:49:07;;;;;;;2.92;1.70;;;;;;;;;;5076059;28;20384;-75
2022/07/01 20:51:32;;;;;;;3.65;1.85;;;;;;;;;;5072009;28;20039;-74
2022/07/01 20:53:57;;;;;;;4.28;2.60;;;;;;;;;;5077383;28;20043;-74
2022/07/01 20:56:22;;;;;;;6.13;2.30;;;;;;;;;;5073748;28;20032;-74
2022/07/01 20:58:50;;;;;;;5.63;2.55;;;;;;;;;;5078277;28;20323;-71
2022/07/01 21:01:15;;;;;;;4.05;2.22;;;;;;;;;;5077480;28;20543;-75
2022/07/01 21:03:40;;;;;;;6.22;2.20;;;;;;;;;;5072476;28;20016;-73
2022/07/01 21:06:06;;;;;;;5.68;2.22;;;;;;;;;;5077833;28;20031;-74
2022/07/01 21:08:31;;;;;;;5.90;2.63;;;;;;;;;;5073571;28;20020;-74
2022/07/01 21:10:56;;;;;;;4.63;2.30;;;;;;;;;;5078207;28;20420;-74
2022/07/01 21:13:22;;;;;;;5.70;1.90;;;;;;;;;;5077952;28;20486;-75
2022/07/01 21:15:47;;;;;;;2.80;2.40;;;;;;;;;;5075565;28;20046;-74
2022/07/01 21:18:12;;;;;;;7.35;2.75;;;;;;;;;;5072166;28;20031;-74
2022/07/01 21:20:37;;;;;;;4.40;2.53;;;;;;;;;;5078593;28;20036;-74
2022/07/01 21:23:03;;;;;;;5.07;2.30;;;;;;;;;;5080963;28;20016;-75
2022/07/01 21:25:28;;;;;;;5.57;2.72;;;;;;;;;;5083050;28;20031;-75
2022/07/01 21:27:53;;;;;;;5.93;2.75;;;;;;;;;;5055573;28;20016;-74
2022/07/01 21:30:19;;;;;;;4.85;2.10;;;;;;;;;;5087209;28;20024;-74
2022/07/01 21:32:44;;;;;;;5.20;2.20;;;;;;;;;;5083983;28;20031;-74
2022/07/01 21:35:09;;;;;;;4.43;2.22;;;;;;;;;;5080454;28;20620;-74
2022/07/01 21:37:35;;;;;;;3.05;2.08;;;;;;;;;;5078332;28;20456;-74
2022/07/01 21:40:00;;;;;;;4.28;2.20;;;;;;;;;;5067821;28;20092;-74
2022/07/01 21:42:27;;;;;;;5.20;2.55;;;;;;;;;;5086043;28;20012;-74
2022/07/01 21:44:52;;;;;;;9.25;2.45;;;;;;;;;;5070597;28;20020;-74
2022/07/01 21:47:18;;;;;;;3.90;2.42;;;;;;;;;;5063615;28;20020;-74
2022/07/01 21:49:44;;;;;;;5.00;2.60;;;;;;;;;;5077878;28;20146;-75
2022/07/01 21:52:10;;;;;;;6.65;2.70;;;;;;;;;;5084116;28;20023;-74
2022/07/01 21:54:36;;;;;;;6.65;2.53;;;;;;;;;;5064267;28;20569;-74
2022/07/01 21:57:02;;;;;;;5.35;2.50;;;;;;;;;;5081185;28;20482;-74
2022/07/01 21:59:27;;;;;;;4.47;2.67;;;;;;;;;;5079128;28;20118;-73
2022/07/01 22:01:54;;;;;;;8.95;2.75;;;;;;;;;;5077338;28;20024;-75
2022/07/01 22:04:22;;;;;;;4.10;2.10;;;;;;;;;;5079152;28;20051;-71
2022/07/01 22:06:54;;;;;;;3.35;1.85;;;;;;;;;;5074095;28;20534;-73
2022/07/01 22:09:22;;;;;;;6.15;2.90;;;;;;;;;;5059500;28;20563;-74
2022/07/01 22:11:49;;;;;;;4.18;2.53;;;;;;;;;;5076668;28;20035;-74
2022/07/01 22:14:18;;;;;;;3.47;2.20;;;;;;;;;;5074004;28;20470;-74
2022/07/01 22:16:44;;;;;;;5.85;2.60;;;;;;;;;;5072772;28;20107;-74
2022/07/01 22:19:09;;;;;;;6.75;3.10;;;;;;;;;;5076333;28;20101;-74
2022/07/01 22:21:35;;;;;;;4.57;2.25;;;;;;;;;;5075331;28;20035;-74
2022/07/01 22:24:01;;;;;;;4.07;2.03;;;;;;;;;;5077228;28;20569;-74
2022/07/01 22:26:26;;;;;;;5.80;2.38;;;;;;;;;;5077860;28;20077;-74
2022/07/01 22:28:53;;;;;;;8.77;2.78;;;;;;;;;;5082098;28;20158;-74
2022/07/01 22:31:18;;;;;;;8.75;2.80;;;;;;;;;;5071264;28;20040;-74
2022/07/01 22:33:48;;;;;;;2.40;1.98;;;;;;;;;;5082657;28;20686;-74
2022/07/01 22:36:13;;;;;;;4.60;2.58;;;;;;;;;;5080147;28;20035;-74
2022/07/01 22:38:40;;;;;;;8.13;3.13;;;;;;;;;;5082180;28;20107;-73
2022/07/01 22:41:05;;;;;;;7.30;2.70;;;;;;;;;;5080423;28;20032;-73
2022/07/01 22:43:31;;;;;;;3.65;3.08;;;;;;;;;;5084078;28;20078;-71
2022/07/01 22:46:05;;;;;;;5.30;3.70;;;;;;;;;;5083890;28;21357;-74
2022/07/01 22:48:39;;;;;;;5.40;2.65;;;;;;;;;;5085136;28;20055;-74
2022/07/01 22:51:10;;;;;;;6.75;3.08;;;;;;;;;;5062521;28;20027;-74
2022/07/01 22:53:40;;;;;;;3.60;3.28;;;;;;;;;;5076076;28;20035;-74
2022/07/01 22:56:10;;;;;;;5.93;3.05;;;;;;;;;;5080143;28;20046;-74
2022/07/01 22:58:35;;;;;;;4.97;3.22;;;;;;;;;;5070552;28;20120;-74
2022/07/01 23:01:03;;;;;;;8.03;3.13;;;;;;;;;;5084287;28;20104;-74
2022/07/01 23:03:32;;;;;;;6.32;3.63;;;;;;;;;;5080430;28;20370;-73
2022/07/01 23:05:58;;;;;;;7.00;3.92;;;;;;;;;;5078286;28;20024;-74
2022/07/01 23:08:44;;;;;;;6.10;3.45;;;;;;;;;;5083996;28;20082;-73
2022/07/01 23:11:15;;;;;;;6.25;3.65;;;;;;;;;;5083930;28;20487;-72
2022/07/01 23:16:32;;;;;;;10.13;3.83;;;;;;;;;;5065980;28;20040;-71
2022/07/01 23:18:58;;;;;;;6.35;3.65;;;;;;;;;;5061802;28;20058;-71
2022/07/01 23:21:24;;;;;;;5.80;3.63;;;;;;;;;;5081681;28;20027;-74
2022/07/01 23:23:50;;;;;;;7.97;4.15;;;;;;;;;;5080566;28;20085;-74
2022/07/01 23:26:16;;;;;;;6.90;4.22;;;;;;;;;;5083220;28;20032;-75
2022/07/01 23:28:42;;;;;;;7.57;4.25;;;;;;;;;;5084237;28;20035;-73
2022/07/01 23:31:09;;;;;;;8.90;4.43;;;;;;;;;;5082722;28;20020;-74
2022/07/01 23:33:38;;;;;;;7.03;4.25;;;;;;;;;;5081784;28;20078;-74
2022/07/01 23:36:03;;;;;;;12.30;5.35;;;;;;;;;;5080145;28;20103;-74
2022/07/01 23:38:30;;;;;;;6.95;4.35;;;;;;;;;;5084972;28;20134;-71
2022/07/01 23:43:39;;;;;;;5.38;4.63;;;;;;;;;;5081175;28;20178;-74
2022/07/01 23:46:05;;;;;;;5.72;4.90;;;;;;;;;;5079231;28;20075;-74
2022/07/01 23:48:30;;;;;;;7.00;4.85;;;;;;;;;;5082196;28;20020;-74
2022/07/01 23:50:56;;;;;;;7.32;4.80;;;;;;;;;;5083162;28;20020;-73
2022/07/01 23:53:21;;;;;;;7.85;4.72;;;;;;;;;;5083888;28;20478;-75
2022/07/01 23:55:46;;;;;;;7.05;5.60;;;;;;;;;;5080527;28;20024;-74
2022/07/01 23:58:11;;;;;;;7.45;5.43;;;;;;;;;;5082953;28;20478;-74
